sensor_id;sensor_type;location;lat;lon;timestamp;P1;durP1;ratioP1;P2;durP2;ratioP2
70780;SDS011;72716;48.814;2.126;2024-02-15T12:03:30;1.38;;;1.10;;
70780;SDS011;72716;48.814;2.126;2024-02-15T12:06:17;1.48;;;1.20;;
70780;SDS011;72716;48.814;2.126;2024-02-15T12:09:01;3.40;;;2.00;;
70780;SDS011;72716;48.814;2.126;2024-02-15T12:11:45;2.40;;;1.42;;
70780;SDS011;72716;48.814;2.126;2024-02-15T12:14:29;5.10;;;1.95;;
70780;SDS011;72716;48.814;2.126;2024-02-15T12:17:13;2.13;;;1.20;;
70780;SDS011;72716;48.814;2.126;2024-02-15T12:19:59;4.40;;;1.50;;
70780;SDS011;72716;48.814;2.126;2024-02-15T12:22:31;3.15;;;1.58;;
70780;SDS011;72716;48.814;2.126;2024-02-15T12:24:59;2.70;;;2.00;;
70780;SDS011;72716;48.814;2.126;2024-02-15T12:27:26;3.22;;;2.03;;
70780;SDS011;72716;48.814;2.126;2024-02-15T12:29:58;2.15;;;1.45;;
70780;SDS011;72716;48.814;2.126;2024-02-15T12:32:25;3.70;;;1.52;;
70780;SDS011;72716;48.814;2.126;2024-02-15T12:35:09;2.58;;;1.70;;
70780;SDS011;72716;48.814;2.126;2024-02-15T12:37:42;1.67;;;1.25;;
70780;SDS011;72716;48.814;2.126;2024-02-15T12:40:18;2.55;;;1.50;;
70780;SDS011;72716;48.814;2.126;2024-02-15T12:42:45;5.18;;;1.60;;
70780;SDS011;72716;48.814;2.126;2024-02-15T12:45:19;5.10;;;1.30;;
70780;SDS011;72716;48.814;2.126;2024-02-15T12:47:55;3.72;;;1.40;;
70780;SDS011;72716;48.814;2.126;2024-02-15T12:50:22;2.47;;;1.38;;
70780;SDS011;72716;48.814;2.126;2024-02-15T12:52:49;3.00;;;1.30;;
70780;SDS011;72716;48.814;2.126;2024-02-15T12:55:21;1.95;;;1.30;;
70780;SDS011;72716;48.814;2.126;2024-02-15T12:57:53;1.85;;;1.00;;
70780;SDS011;72716;48.814;2.126;2024-02-15T13:03:01;1.42;;;0.93;;
70780;SDS011;72716;48.814;2.126;2024-02-15T13:05:29;2.65;;;1.00;;
70780;SDS011;72716;48.814;2.126;2024-02-15T13:07:58;2.47;;;1.40;;
70780;SDS011;72716;48.814;2.126;2024-02-15T13:10:23;1.98;;;1.27;;
70780;SDS011;72716;48.814;2.126;2024-02-15T13:12:51;3.42;;;1.20;;
70780;SDS011;72716;48.814;2.126;2024-02-15T13:15:18;3.30;;;1.33;;
70780;SDS011;72716;48.814;2.126;2024-02-15T13:17:46;1.08;;;0.80;;
70780;SDS011;72716;48.814;2.126;2024-02-15T13:20:21;7.88;;;1.50;;
70780;SDS011;72716;48.814;2.126;2024-02-15T13:23:02;2.10;;;1.30;;
70780;SDS011;72716;48.814;2.126;2024-02-15T13:25:41;5.75;;;1.75;;
70780;SDS011;72716;48.814;2.126;2024-02-15T13:28:08;2.45;;;1.40;;
70780;SDS011;72716;48.814;2.126;2024-02-15T13:30:35;2.30;;;1.23;;
70780;SDS011;72716;48.814;2.126;2024-02-15T13:33:01;3.78;;;1.58;;
70780;SDS011;72716;48.814;2.126;2024-02-15T13:35:27;1.75;;;1.45;;
70780;SDS011;72716;48.814;2.126;2024-02-15T13:37:53;2.50;;;1.15;;
70780;SDS011;72716;48.814;2.126;2024-02-15T13:40:22;6.07;;;1.35;;
70780;SDS011;72716;48.814;2.126;2024-02-15T13:42:49;2.35;;;1.08;;
70780;SDS011;72716;48.814;2.126;2024-02-15T13:45:22;1.20;;;1.10;;
70780;SDS011;72716;48.814;2.126;2024-02-15T13:47:51;1.52;;;1.10;;
70780;SDS011;72716;48.814;2.126;2024-02-15T13:50:18;2.53;;;0.80;;
70780;SDS011;72716;48.814;2.126;2024-02-15T13:52:44;1.30;;;1.17;;
70780;SDS011;72716;48.814;2.126;2024-02-15T13:55:11;2.38;;;1.23;;
70780;SDS011;72716;48.814;2.126;2024-02-15T13:57:41;1.23;;;0.93;;
70780;SDS011;72716;48.814;2.126;2024-02-15T14:00:09;2.70;;;1.02;;
70780;SDS011;72716;48.814;2.126;2024-02-15T14:02:42;1.20;;;0.95;;
70780;SDS011;72716;48.814;2.126;2024-02-15T14:05:08;2.60;;;1.20;;
70780;SDS011;72716;48.814;2.126;2024-02-15T14:07:34;1.45;;;0.98;;
70780;SDS011;72716;48.814;2.126;2024-02-15T14:10:04;3.33;;;1.20;;
70780;SDS011;72716;48.814;2.126;2024-02-15T14:12:31;3.10;;;1.33;;
70780;SDS011;72716;48.814;2.126;2024-02-15T14:14:56;1.70;;;1.30;;
70780;SDS011;72716;48.814;2.126;2024-02-15T14:17:21;1.45;;;1.20;;
70780;SDS011;72716;48.814;2.126;2024-02-15T14:19:47;2.60;;;1.20;;
70780;SDS011;72716;48.814;2.126;2024-02-15T14:22:13;2.40;;;1.10;;
70780;SDS011;72716;48.814;2.126;2024-02-15T14:24:41;1.27;;;0.98;;
70780;SDS011;72716;48.814;2.126;2024-02-15T14:27:10;2.55;;;1.20;;
70780;SDS011;72716;48.814;2.126;2024-02-15T14:29:36;1.98;;;1.17;;
70780;SDS011;72716;48.814;2.126;2024-02-15T14:32:09;1.60;;;1.10;;
70780;SDS011;72716;48.814;2.126;2024-02-15T14:34:56;3.38;;;1.30;;
70780;SDS011;72716;48.814;2.126;2024-02-15T14:37:22;4.90;;;1.60;;
70780;SDS011;72716;48.814;2.126;2024-02-15T14:39:47;1.65;;;1.17;;
70780;SDS011;72716;48.814;2.126;2024-02-15T14:42:13;1.15;;;0.90;;
70780;SDS011;72716;48.814;2.126;2024-02-15T14:44:39;2.17;;;1.20;;
70780;SDS011;72716;48.814;2.126;2024-02-15T14:47:04;2.42;;;1.10;;
70780;SDS011;72716;48.814;2.126;2024-02-15T14:49:30;4.43;;;1.45;;
70780;SDS011;72716;48.814;2.126;2024-02-15T14:51:56;3.00;;;1.10;;
70780;SDS011;72716;48.814;2.126;2024-02-15T14:54:21;2.88;;;1.33;;
70780;SDS011;72716;48.814;2.126;2024-02-15T14:56:46;1.55;;;1.20;;
70780;SDS011;72716;48.814;2.126;2024-02-15T14:59:12;1.70;;;1.00;;
70780;SDS011;72716;48.814;2.126;2024-02-15T15:01:37;4.75;;;1.17;;
70780;SDS011;72716;48.814;2.126;2024-02-15T15:04:03;3.25;;;1.05;;
70780;SDS011;72716;48.814;2.126;2024-02-15T15:06:31;1.42;;;1.10;;
70780;SDS011;72716;48.814;2.126;2024-02-15T15:09:14;1.30;;;1.08;;
70780;SDS011;72716;48.814;2.126;2024-02-15T15:11:59;1.60;;;0.90;;
70780;SDS011;72716;48.814;2.126;2024-02-15T15:14:43;1.77;;;1.23;;
70780;SDS011;72716;48.814;2.126;2024-02-15T15:17:10;1.75;;;1.27;;
70780;SDS011;72716;48.814;2.126;2024-02-15T15:19:37;1.98;;;1.08;;
70780;SDS011;72716;48.814;2.126;2024-02-15T15:22:05;1.63;;;0.88;;
70780;SDS011;72716;48.814;2.126;2024-02-15T15:24:31;3.08;;;0.90;;
70780;SDS011;72716;48.814;2.126;2024-02-15T15:26:58;2.80;;;1.05;;
70780;SDS011;72716;48.814;2.126;2024-02-15T15:29:24;3.10;;;1.00;;
70780;SDS011;72716;48.814;2.126;2024-02-15T15:31:49;1.02;;;0.90;;
70780;SDS011;72716;48.814;2.126;2024-02-15T15:34:15;1.40;;;1.15;;
70780;SDS011;72716;48.814;2.126;2024-02-15T15:36:41;0.77;;;0.77;;
70780;SDS011;72716;48.814;2.126;2024-02-15T15:39:07;1.17;;;1.02;;
70780;SDS011;72716;48.814;2.126;2024-02-15T15:41:35;1.38;;;0.98;;
70780;SDS011;72716;48.814;2.126;2024-02-15T15:44:00;1.55;;;1.05;;
70780;SDS011;72716;48.814;2.126;2024-02-15T15:46:26;1.90;;;0.98;;
70780;SDS011;72716;48.814;2.126;2024-02-15T15:48:51;1.85;;;1.10;;
70780;SDS011;72716;48.814;2.126;2024-02-15T15:51:16;1.15;;;0.85;;
70780;SDS011;72716;48.814;2.126;2024-02-15T15:53:42;1.60;;;1.15;;
70780;SDS011;72716;48.814;2.126;2024-02-15T15:56:09;1.50;;;1.05;;
70780;SDS011;72716;48.814;2.126;2024-02-15T15:58:35;3.80;;;1.15;;
70780;SDS011;72716;48.814;2.126;2024-02-15T16:01:00;2.80;;;1.23;;
70780;SDS011;72716;48.814;2.126;2024-02-15T16:03:26;4.10;;;1.17;;
70780;SDS011;72716;48.814;2.126;2024-02-15T16:05:52;4.30;;;1.55;;
70780;SDS011;72716;48.814;2.126;2024-02-15T16:08:18;1.83;;;1.45;;
70780;SDS011;72716;48.814;2.126;2024-02-15T16:10:43;1.73;;;1.10;;
70780;SDS011;72716;48.814;2.126;2024-02-15T16:13:11;1.98;;;1.55;;
70780;SDS011;72716;48.814;2.126;2024-02-15T16:15:37;1.33;;;1.20;;
70780;SDS011;72716;48.814;2.126;2024-02-15T16:18:03;1.92;;;1.30;;
70780;SDS011;72716;48.814;2.126;2024-02-15T16:20:28;1.88;;;1.33;;
70780;SDS011;72716;48.814;2.126;2024-02-15T16:22:54;2.25;;;1.50;;
70780;SDS011;72716;48.814;2.126;2024-02-15T16:25:20;1.80;;;1.48;;
70780;SDS011;72716;48.814;2.126;2024-02-15T16:27:45;1.35;;;0.98;;
70780;SDS011;72716;48.814;2.126;2024-02-15T16:30:12;1.50;;;1.20;;
70780;SDS011;72716;48.814;2.126;2024-02-15T16:32:41;1.73;;;1.20;;
70780;SDS011;72716;48.814;2.126;2024-02-15T16:35:07;3.17;;;1.30;;
70780;SDS011;72716;48.814;2.126;2024-02-15T16:37:38;1.27;;;1.10;;
70780;SDS011;72716;48.814;2.126;2024-02-15T16:40:08;2.45;;;1.40;;
70780;SDS011;72716;48.814;2.126;2024-02-15T16:42:35;2.95;;;1.27;;
70780;SDS011;72716;48.814;2.126;2024-02-15T16:45:02;1.98;;;1.45;;
70780;SDS011;72716;48.814;2.126;2024-02-15T16:47:28;3.13;;;1.50;;
70780;SDS011;72716;48.814;2.126;2024-02-15T16:49:53;3.00;;;1.70;;
70780;SDS011;72716;48.814;2.126;2024-02-15T16:52:19;3.13;;;1.45;;
70780;SDS011;72716;48.814;2.126;2024-02-15T16:54:44;4.30;;;1.80;;
70780;SDS011;72716;48.814;2.126;2024-02-15T16:57:09;4.35;;;1.30;;
70780;SDS011;72716;48.814;2.126;2024-02-15T16:59:35;2.47;;;1.40;;
70780;SDS011;72716;48.814;2.126;2024-02-15T17:02:01;1.73;;;1.48;;
70780;SDS011;72716;48.814;2.126;2024-02-15T17:04:26;1.48;;;1.38;;
70780;SDS011;72716;48.814;2.126;2024-02-15T17:06:52;4.68;;;1.50;;
70780;SDS011;72716;48.814;2.126;2024-02-15T17:09:18;4.15;;;1.40;;
70780;SDS011;72716;48.814;2.126;2024-02-15T17:11:44;3.00;;;1.42;;
70780;SDS011;72716;48.814;2.126;2024-02-15T17:14:11;1.80;;;1.23;;
70780;SDS011;72716;48.814;2.126;2024-02-15T17:16:39;3.80;;;1.83;;
70780;SDS011;72716;48.814;2.126;2024-02-15T17:19:07;3.65;;;1.98;;
70780;SDS011;72716;48.814;2.126;2024-02-15T17:21:33;2.10;;;1.55;;
70780;SDS011;72716;48.814;2.126;2024-02-15T17:23:59;1.98;;;1.38;;
70780;SDS011;72716;48.814;2.126;2024-02-15T17:26:25;2.20;;;1.95;;
70780;SDS011;72716;48.814;2.126;2024-02-15T17:28:51;2.35;;;1.58;;
70780;SDS011;72716;48.814;2.126;2024-02-15T17:31:18;3.53;;;1.95;;
70780;SDS011;72716;48.814;2.126;2024-02-15T17:33:44;3.53;;;2.15;;
70780;SDS011;72716;48.814;2.126;2024-02-15T17:36:10;2.08;;;1.48;;
70780;SDS011;72716;48.814;2.126;2024-02-15T17:38:39;3.80;;;1.88;;
70780;SDS011;72716;48.814;2.126;2024-02-15T17:41:04;3.22;;;1.73;;
70780;SDS011;72716;48.814;2.126;2024-02-15T17:43:30;2.60;;;2.03;;
70780;SDS011;72716;48.814;2.126;2024-02-15T17:45:56;1.85;;;1.50;;
70780;SDS011;72716;48.814;2.126;2024-02-15T17:48:24;1.92;;;1.60;;
70780;SDS011;72716;48.814;2.126;2024-02-15T17:50:52;3.50;;;1.80;;
70780;SDS011;72716;48.814;2.126;2024-02-15T17:53:17;2.63;;;1.75;;
70780;SDS011;72716;48.814;2.126;2024-02-15T17:55:42;3.60;;;2.25;;
70780;SDS011;72716;48.814;2.126;2024-02-15T17:58:10;3.22;;;1.92;;
70780;SDS011;72716;48.814;2.126;2024-02-15T18:00:36;2.75;;;1.75;;
70780;SDS011;72716;48.814;2.126;2024-02-15T18:03:02;2.53;;;1.90;;
70780;SDS011;72716;48.814;2.126;2024-02-15T18:05:28;3.55;;;2.00;;
70780;SDS011;72716;48.814;2.126;2024-02-15T18:07:53;2.80;;;1.92;;
70780;SDS011;72716;48.814;2.126;2024-02-15T18:10:19;2.08;;;1.60;;
70780;SDS011;72716;48.814;2.126;2024-02-15T18:12:46;4.32;;;1.90;;
70780;SDS011;72716;48.814;2.126;2024-02-15T18:15:11;1.85;;;1.75;;
70780;SDS011;72716;48.814;2.126;2024-02-15T18:17:49;2.30;;;2.10;;
70780;SDS011;72716;48.814;2.126;2024-02-15T18:20:15;3.78;;;2.15;;
70780;SDS011;72716;48.814;2.126;2024-02-15T18:22:42;3.15;;;2.22;;
70780;SDS011;72716;48.814;2.126;2024-02-15T18:25:08;3.25;;;1.77;;
70780;SDS011;72716;48.814;2.126;2024-02-15T18:27:34;2.88;;;1.75;;
70780;SDS011;72716;48.814;2.126;2024-02-15T18:30:06;2.97;;;2.25;;
70780;SDS011;72716;48.814;2.126;2024-02-15T18:32:36;2.53;;;2.05;;
70780;SDS011;72716;48.814;2.126;2024-02-15T18:35:04;3.58;;;1.70;;
70780;SDS011;72716;48.814;2.126;2024-02-15T18:37:35;2.97;;;1.90;;
70780;SDS011;72716;48.814;2.126;2024-02-15T18:40:01;3.05;;;1.70;;
70780;SDS011;72716;48.814;2.126;2024-02-15T18:42:31;2.38;;;1.58;;
70780;SDS011;72716;48.814;2.126;2024-02-15T18:45:03;4.72;;;2.58;;
70780;SDS011;72716;48.814;2.126;2024-02-15T18:47:29;4.05;;;2.50;;
70780;SDS011;72716;48.814;2.126;2024-02-15T18:49:55;4.28;;;2.13;;
70780;SDS011;72716;48.814;2.126;2024-02-15T18:52:21;3.78;;;2.10;;
70780;SDS011;72716;48.814;2.126;2024-02-15T18:54:47;3.10;;;2.50;;
70780;SDS011;72716;48.814;2.126;2024-02-15T18:57:12;3.38;;;2.00;;
70780;SDS011;72716;48.814;2.126;2024-02-15T18:59:38;4.93;;;2.63;;
70780;SDS011;72716;48.814;2.126;2024-02-15T19:02:04;3.88;;;2.47;;
70780;SDS011;72716;48.814;2.126;2024-02-15T19:04:32;2.70;;;2.35;;
70780;SDS011;72716;48.814;2.126;2024-02-15T19:06:58;5.07;;;2.42;;
70780;SDS011;72716;48.814;2.126;2024-02-15T19:09:23;4.72;;;2.75;;
70780;SDS011;72716;48.814;2.126;2024-02-15T19:11:49;3.28;;;2.80;;
70780;SDS011;72716;48.814;2.126;2024-02-15T19:14:15;4.10;;;3.35;;
70780;SDS011;72716;48.814;2.126;2024-02-15T19:16:43;5.20;;;2.80;;
70780;SDS011;72716;48.814;2.126;2024-02-15T19:19:09;4.25;;;2.95;;
70780;SDS011;72716;48.814;2.126;2024-02-15T19:21:36;3.60;;;2.33;;
70780;SDS011;72716;48.814;2.126;2024-02-15T19:24:07;4.50;;;2.55;;
70780;SDS011;72716;48.814;2.126;2024-02-15T19:26:33;5.55;;;3.10;;
70780;SDS011;72716;48.814;2.126;2024-02-15T19:29:04;3.50;;;2.73;;
70780;SDS011;72716;48.814;2.126;2024-02-15T19:31:30;3.03;;;2.65;;
70780;SDS011;72716;48.814;2.126;2024-02-15T19:33:55;3.03;;;2.13;;
70780;SDS011;72716;48.814;2.126;2024-02-15T19:36:21;3.00;;;2.45;;
70780;SDS011;72716;48.814;2.126;2024-02-15T19:38:49;3.15;;;2.17;;
70780;SDS011;72716;48.814;2.126;2024-02-15T19:41:16;3.03;;;2.55;;
70780;SDS011;72716;48.814;2.126;2024-02-15T19:43:42;3.58;;;2.63;;
70780;SDS011;72716;48.814;2.126;2024-02-15T19:46:07;3.08;;;2.15;;
70780;SDS011;72716;48.814;2.126;2024-02-15T19:48:33;3.85;;;2.70;;
70780;SDS011;72716;48.814;2.126;2024-02-15T19:50:59;3.72;;;3.42;;
70780;SDS011;72716;48.814;2.126;2024-02-15T19:53:24;4.90;;;3.03;;
70780;SDS011;72716;48.814;2.126;2024-02-15T19:55:50;3.70;;;2.83;;
70780;SDS011;72716;48.814;2.126;2024-02-15T19:58:16;4.10;;;2.50;;
70780;SDS011;72716;48.814;2.126;2024-02-15T20:00:41;4.07;;;2.65;;
70780;SDS011;72716;48.814;2.126;2024-02-15T20:03:06;2.65;;;2.45;;
70780;SDS011;72716;48.814;2.126;2024-02-15T20:05:33;3.30;;;2.60;;
70780;SDS011;72716;48.814;2.126;2024-02-15T20:07:58;3.40;;;2.90;;
70780;SDS011;72716;48.814;2.126;2024-02-15T20:10:24;2.83;;;2.58;;
70780;SDS011;72716;48.814;2.126;2024-02-15T20:12:49;4.32;;;3.40;;
70780;SDS011;72716;48.814;2.126;2024-02-15T20:15:14;3.55;;;2.92;;
70780;SDS011;72716;48.814;2.126;2024-02-15T20:17:40;3.90;;;3.30;;
70780;SDS011;72716;48.814;2.126;2024-02-15T20:20:05;3.88;;;2.70;;
70780;SDS011;72716;48.814;2.126;2024-02-15T20:22:33;3.22;;;2.83;;
70780;SDS011;72716;48.814;2.126;2024-02-15T20:24:58;3.53;;;2.70;;
70780;SDS011;72716;48.814;2.126;2024-02-15T20:27:26;5.18;;;3.30;;
70780;SDS011;72716;48.814;2.126;2024-02-15T20:29:56;4.35;;;3.75;;
70780;SDS011;72716;48.814;2.126;2024-02-15T20:32:21;3.28;;;2.97;;
70780;SDS011;72716;48.814;2.126;2024-02-15T20:34:47;3.78;;;2.90;;
70780;SDS011;72716;48.814;2.126;2024-02-15T20:37:12;4.38;;;2.75;;
70780;SDS011;72716;48.814;2.126;2024-02-15T20:39:38;4.28;;;3.45;;
70780;SDS011;72716;48.814;2.126;2024-02-15T20:42:04;3.53;;;2.75;;
70780;SDS011;72716;48.814;2.126;2024-02-15T20:44:29;3.33;;;2.97;;
70780;SDS011;72716;48.814;2.126;2024-02-15T20:46:55;4.95;;;3.20;;
70780;SDS011;72716;48.814;2.126;2024-02-15T20:49:20;3.83;;;2.85;;
70780;SDS011;72716;48.814;2.126;2024-02-15T20:51:45;3.17;;;2.85;;
70780;SDS011;72716;48.814;2.126;2024-02-15T20:54:11;3.53;;;3.03;;
70780;SDS011;72716;48.814;2.126;2024-02-15T20:56:37;7.03;;;2.75;;
70780;SDS011;72716;48.814;2.126;2024-02-15T20:59:04;3.08;;;2.78;;
70780;SDS011;72716;48.814;2.126;2024-02-15T21:01:30;2.88;;;2.30;;
70780;SDS011;72716;48.814;2.126;2024-02-15T21:03:56;5.07;;;2.55;;
70780;SDS011;72716;48.814;2.126;2024-02-15T21:06:22;3.28;;;2.33;;
70780;SDS011;72716;48.814;2.126;2024-02-15T21:08:51;3.30;;;2.95;;
70780;SDS011;72716;48.814;2.126;2024-02-15T21:11:24;3.25;;;2.60;;
70780;SDS011;72716;48.814;2.126;2024-02-15T21:13:52;2.33;;;2.08;;
70780;SDS011;72716;48.814;2.126;2024-02-15T21:16:21;2.88;;;2.22;;
